sensor_id;sensor_type;location;lat;lon;timestamp;P1;durP1;ratioP1;P2;durP2;ratioP2
25127;SDS011;13107;51.304;6.866;2023-04-06T00:03:34;14.85;;;7.25;;
25127;SDS011;13107;51.304;6.866;2023-04-06T00:07:36;13.75;;;7.60;;
25127;SDS011;13107;51.304;6.866;2023-04-06T00:11:38;15.93;;;7.40;;
25127;SDS011;13107;51.304;6.866;2023-04-06T00:15:40;12.07;;;7.00;;
25127;SDS011;13107;51.304;6.866;2023-04-06T00:19:42;14.82;;;7.53;;
25127;SDS011;13107;51.304;6.866;2023-04-06T00:23:43;11.15;;;7.32;;
25127;SDS011;13107;51.304;6.866;2023-04-06T00:27:45;11.20;;;7.15;;
25127;SDS011;13107;51.304;6.866;2023-04-06T00:31:47;13.27;;;6.75;;
25127;SDS011;13107;51.304;6.866;2023-04-06T00:35:49;11.15;;;7.07;;
25127;SDS011;13107;51.304;6.866;2023-04-06T00:39:51;14.05;;;7.78;;
25127;SDS011;13107;51.304;6.866;2023-04-06T00:43:53;11.20;;;7.12;;
25127;SDS011;13107;51.304;6.866;2023-04-06T00:47:56;13.68;;;7.93;;
25127;SDS011;13107;51.304;6.866;2023-04-06T00:51:58;10.57;;;6.90;;
25127;SDS011;13107;51.304;6.866;2023-04-06T00:55:59;12.35;;;7.35;;
25127;SDS011;13107;51.304;6.866;2023-04-06T01:00:01;11.23;;;7.75;;
25127;SDS011;13107;51.304;6.866;2023-04-06T01:04:04;16.67;;;8.48;;
25127;SDS011;13107;51.304;6.866;2023-04-06T01:08:06;12.07;;;7.90;;
25127;SDS011;13107;51.304;6.866;2023-04-06T01:12:08;14.32;;;7.55;;
25127;SDS011;13107;51.304;6.866;2023-04-06T01:16:10;12.48;;;7.30;;
25127;SDS011;13107;51.304;6.866;2023-04-06T01:20:13;11.30;;;6.95;;
25127;SDS011;13107;51.304;6.866;2023-04-06T01:24:15;13.23;;;7.90;;
25127;SDS011;13107;51.304;6.866;2023-04-06T01:28:17;12.27;;;8.07;;
25127;SDS011;13107;51.304;6.866;2023-04-06T01:32:19;11.52;;;7.75;;
25127;SDS011;13107;51.304;6.866;2023-04-06T01:36:22;13.60;;;7.90;;
25127;SDS011;13107;51.304;6.866;2023-04-06T01:40:23;12.15;;;7.93;;
25127;SDS011;13107;51.304;6.866;2023-04-06T01:44:25;14.65;;;8.07;;
25127;SDS011;13107;51.304;6.866;2023-04-06T01:48:27;12.77;;;7.97;;
25127;SDS011;13107;51.304;6.866;2023-04-06T01:52:29;12.43;;;7.82;;
25127;SDS011;13107;51.304;6.866;2023-04-06T01:56:31;14.30;;;8.77;;
25127;SDS011;13107;51.304;6.866;2023-04-06T02:00:32;10.45;;;7.50;;
25127;SDS011;13107;51.304;6.866;2023-04-06T02:04:34;13.38;;;7.95;;
25127;SDS011;13107;51.304;6.866;2023-04-06T02:08:36;12.45;;;7.95;;
25127;SDS011;13107;51.304;6.866;2023-04-06T02:12:38;13.35;;;7.53;;
25127;SDS011;13107;51.304;6.866;2023-04-06T02:16:40;12.63;;;7.93;;
25127;SDS011;13107;51.304;6.866;2023-04-06T02:20:42;14.25;;;8.35;;
25127;SDS011;13107;51.304;6.866;2023-04-06T02:24:44;12.45;;;8.07;;
25127;SDS011;13107;51.304;6.866;2023-04-06T02:28:46;14.13;;;8.45;;
25127;SDS011;13107;51.304;6.866;2023-04-06T02:32:48;10.98;;;7.22;;
25127;SDS011;13107;51.304;6.866;2023-04-06T02:36:50;12.73;;;7.82;;
25127;SDS011;13107;51.304;6.866;2023-04-06T02:40:52;16.05;;;8.52;;
25127;SDS011;13107;51.304;6.866;2023-04-06T02:44:53;12.60;;;8.85;;
25127;SDS011;13107;51.304;6.866;2023-04-06T02:48:55;12.93;;;8.20;;
25127;SDS011;13107;51.304;6.866;2023-04-06T02:52:57;16.27;;;8.82;;
25127;SDS011;13107;51.304;6.866;2023-04-06T02:56:59;18.05;;;9.50;;
25127;SDS011;13107;51.304;6.866;2023-04-06T03:01:01;16.30;;;8.93;;
25127;SDS011;13107;51.304;6.866;2023-04-06T03:05:02;14.13;;;8.68;;
25127;SDS011;13107;51.304;6.866;2023-04-06T03:09:05;16.70;;;9.30;;
25127;SDS011;13107;51.304;6.866;2023-04-06T03:13:08;15.48;;;9.35;;
25127;SDS011;13107;51.304;6.866;2023-04-06T03:17:10;15.15;;;9.32;;
25127;SDS011;13107;51.304;6.866;2023-04-06T03:21:11;13.85;;;9.20;;
25127;SDS011;13107;51.304;6.866;2023-04-06T03:25:14;15.82;;;9.95;;
25127;SDS011;13107;51.304;6.866;2023-04-06T03:29:16;16.58;;;9.88;;
25127;SDS011;13107;51.304;6.866;2023-04-06T03:33:18;15.50;;;10.25;;
25127;SDS011;13107;51.304;6.866;2023-04-06T03:37:19;15.88;;;9.20;;
25127;SDS011;13107;51.304;6.866;2023-04-06T03:41:21;17.83;;;9.30;;
25127;SDS011;13107;51.304;6.866;2023-04-06T03:45:23;16.02;;;9.82;;
25127;SDS011;13107;51.304;6.866;2023-04-06T03:49:25;16.48;;;9.52;;
25127;SDS011;13107;51.304;6.866;2023-04-06T03:53:27;17.02;;;8.50;;
25127;SDS011;13107;51.304;6.866;2023-04-06T03:57:29;19.23;;;9.95;;
25127;SDS011;13107;51.304;6.866;2023-04-06T04:01:30;18.23;;;9.40;;
25127;SDS011;13107;51.304;6.866;2023-04-06T04:05:32;13.70;;;9.30;;
25127;SDS011;13107;51.304;6.866;2023-04-06T04:09:34;17.02;;;9.68;;
25127;SDS011;13107;51.304;6.866;2023-04-06T04:13:36;16.45;;;9.80;;
25127;SDS011;13107;51.304;6.866;2023-04-06T04:17:38;13.98;;;9.02;;
25127;SDS011;13107;51.304;6.866;2023-04-06T04:21:43;17.55;;;9.45;;
25127;SDS011;13107;51.304;6.866;2023-04-06T04:25:46;16.30;;;8.88;;
25127;SDS011;13107;51.304;6.866;2023-04-06T04:29:49;20.77;;;9.73;;
25127;SDS011;13107;51.304;6.866;2023-04-06T04:33:53;17.08;;;9.45;;
25127;SDS011;13107;51.304;6.866;2023-04-06T04:37:55;13.90;;;8.60;;
25127;SDS011;13107;51.304;6.866;2023-04-06T04:41:57;13.45;;;8.40;;
25127;SDS011;13107;51.304;6.866;2023-04-06T04:45:59;15.20;;;8.80;;
25127;SDS011;13107;51.304;6.866;2023-04-06T04:50:00;16.08;;;9.32;;
25127;SDS011;13107;51.304;6.866;2023-04-06T04:54:02;14.20;;;9.95;;
25127;SDS011;13107;51.304;6.866;2023-04-06T04:58:04;17.05;;;10.45;;
25127;SDS011;13107;51.304;6.866;2023-04-06T05:02:06;13.57;;;9.50;;
25127;SDS011;13107;51.304;6.866;2023-04-06T05:06:08;17.50;;;9.73;;
25127;SDS011;13107;51.304;6.866;2023-04-06T05:10:13;15.60;;;10.00;;
25127;SDS011;13107;51.304;6.866;2023-04-06T05:14:15;24.33;;;13.45;;
25127;SDS011;13107;51.304;6.866;2023-04-06T05:18:18;17.75;;;10.20;;
25127;SDS011;13107;51.304;6.866;2023-04-06T05:22:20;16.12;;;9.60;;
25127;SDS011;13107;51.304;6.866;2023-04-06T05:26:22;20.15;;;10.57;;
25127;SDS011;13107;51.304;6.866;2023-04-06T05:30:23;14.50;;;9.15;;
25127;SDS011;13107;51.304;6.866;2023-04-06T05:34:25;15.10;;;8.88;;
25127;SDS011;13107;51.304;6.866;2023-04-06T05:38:27;13.20;;;8.70;;
25127;SDS011;13107;51.304;6.866;2023-04-06T05:42:36;13.52;;;9.00;;
25127;SDS011;13107;51.304;6.866;2023-04-06T05:46:39;13.48;;;9.05;;
25127;SDS011;13107;51.304;6.866;2023-04-06T05:50:41;18.27;;;8.90;;
25127;SDS011;13107;51.304;6.866;2023-04-06T05:54:43;15.15;;;9.30;;
25127;SDS011;13107;51.304;6.866;2023-04-06T05:58:44;15.20;;;8.70;;
25127;SDS011;13107;51.304;6.866;2023-04-06T06:02:47;14.07;;;8.68;;
25127;SDS011;13107;51.304;6.866;2023-04-06T06:06:48;12.65;;;8.15;;
25127;SDS011;13107;51.304;6.866;2023-04-06T06:10:51;14.43;;;8.48;;
25127;SDS011;13107;51.304;6.866;2023-04-06T06:14:52;13.88;;;8.50;;
25127;SDS011;13107;51.304;6.866;2023-04-06T06:18:55;16.50;;;7.95;;
25127;SDS011;13107;51.304;6.866;2023-04-06T06:22:57;18.87;;;8.40;;
25127;SDS011;13107;51.304;6.866;2023-04-06T06:26:58;12.75;;;7.00;;
25127;SDS011;13107;51.304;6.866;2023-04-06T06:31:00;10.77;;;6.50;;
25127;SDS011;13107;51.304;6.866;2023-04-06T06:35:02;11.32;;;6.30;;
25127;SDS011;13107;51.304;6.866;2023-04-06T06:39:04;11.95;;;6.65;;
25127;SDS011;13107;51.304;6.866;2023-04-06T06:43:06;10.25;;;5.93;;
25127;SDS011;13107;51.304;6.866;2023-04-06T06:47:08;9.25;;;5.80;;
25127;SDS011;13107;51.304;6.866;2023-04-06T06:51:10;11.50;;;6.15;;
25127;SDS011;13107;51.304;6.866;2023-04-06T06:55:12;8.75;;;5.60;;
25127;SDS011;13107;51.304;6.866;2023-04-06T06:59:14;9.50;;;5.40;;
25127;SDS011;13107;51.304;6.866;2023-04-06T07:03:17;10.93;;;5.50;;
25127;SDS011;13107;51.304;6.866;2023-04-06T07:07:19;8.77;;;5.43;;
25127;SDS011;13107;51.304;6.866;2023-04-06T07:11:21;9.40;;;5.50;;
25127;SDS011;13107;51.304;6.866;2023-04-06T07:15:22;8.27;;;6.28;;
25127;SDS011;13107;51.304;6.866;2023-04-06T07:19:24;12.68;;;6.55;;
25127;SDS011;13107;51.304;6.866;2023-04-06T07:23:26;11.40;;;6.18;;
25127;SDS011;13107;51.304;6.866;2023-04-06T07:27:28;10.85;;;6.30;;
25127;SDS011;13107;51.304;6.866;2023-04-06T07:31:29;9.15;;;6.07;;
25127;SDS011;13107;51.304;6.866;2023-04-06T07:35:31;9.73;;;5.95;;
25127;SDS011;13107;51.304;6.866;2023-04-06T07:39:33;11.63;;;6.30;;
25127;SDS011;13107;51.304;6.866;2023-04-06T07:43:35;10.90;;;6.03;;
25127;SDS011;13107;51.304;6.866;2023-04-06T07:47:37;11.93;;;6.18;;
25127;SDS011;13107;51.304;6.866;2023-04-06T07:51:39;11.68;;;5.97;;
25127;SDS011;13107;51.304;6.866;2023-04-06T07:55:41;8.50;;;6.07;;
25127;SDS011;13107;51.304;6.866;2023-04-06T07:59:43;10.63;;;6.20;;
25127;SDS011;13107;51.304;6.866;2023-04-06T08:03:45;10.20;;;6.72;;
25127;SDS011;13107;51.304;6.866;2023-04-06T08:07:48;9.75;;;6.30;;
25127;SDS011;13107;51.304;6.866;2023-04-06T08:11:50;10.88;;;6.97;;
25127;SDS011;13107;51.304;6.866;2023-04-06T08:15:51;12.60;;;7.12;;
25127;SDS011;13107;51.304;6.866;2023-04-06T08:19:54;10.73;;;7.85;;
25127;SDS011;13107;51.304;6.866;2023-04-06T08:23:56;10.25;;;7.25;;
25127;SDS011;13107;51.304;6.866;2023-04-06T08:27:58;10.57;;;7.68;;
25127;SDS011;13107;51.304;6.866;2023-04-06T08:32:00;11.70;;;7.20;;
25127;SDS011;13107;51.304;6.866;2023-04-06T08:36:07;11.82;;;7.28;;
25127;SDS011;13107;51.304;6.866;2023-04-06T08:40:13;10.88;;;6.78;;
25127;SDS011;13107;51.304;6.866;2023-04-06T08:44:15;11.50;;;7.37;;
25127;SDS011;13107;51.304;6.866;2023-04-06T08:48:18;11.77;;;8.57;;
25127;SDS011;13107;51.304;6.866;2023-04-06T08:52:20;14.87;;;8.05;;
25127;SDS011;13107;51.304;6.866;2023-04-06T08:56:22;11.75;;;7.45;;
25127;SDS011;13107;51.304;6.866;2023-04-06T09:00:25;10.57;;;7.70;;
25127;SDS011;13107;51.304;6.866;2023-04-06T09:04:27;14.90;;;7.57;;
25127;SDS011;13107;51.304;6.866;2023-04-06T09:08:29;11.85;;;7.40;;
25127;SDS011;13107;51.304;6.866;2023-04-06T09:12:31;13.23;;;8.40;;
25127;SDS011;13107;51.304;6.866;2023-04-06T09:16:39;12.05;;;8.07;;
25127;SDS011;13107;51.304;6.866;2023-04-06T09:20:42;15.10;;;8.98;;
25127;SDS011;13107;51.304;6.866;2023-04-06T09:24:53;12.90;;;8.82;;
25127;SDS011;13107;51.304;6.866;2023-04-06T09:28:58;13.82;;;9.20;;
25127;SDS011;13107;51.304;6.866;2023-04-06T09:33:02;16.45;;;9.98;;
25127;SDS011;13107;51.304;6.866;2023-04-06T09:41:20;14.93;;;10.40;;
25127;SDS011;13107;51.304;6.866;2023-04-06T09:45:29;13.88;;;10.40;;
25127;SDS011;13107;51.304;6.866;2023-04-06T09:49:31;15.90;;;10.25;;
25127;SDS011;13107;51.304;6.866;2023-04-06T09:53:35;15.15;;;10.40;;
25127;SDS011;13107;51.304;6.866;2023-04-06T10:01:48;20.23;;;10.38;;
25127;SDS011;13107;51.304;6.866;2023-04-06T10:05:56;15.77;;;9.82;;
25127;SDS011;13107;51.304;6.866;2023-04-06T10:10:04;16.42;;;9.52;;
25127;SDS011;13107;51.304;6.866;2023-04-06T10:14:06;15.38;;;10.60;;
25127;SDS011;13107;51.304;6.866;2023-04-06T10:18:09;16.52;;;11.00;;
25127;SDS011;13107;51.304;6.866;2023-04-06T10:22:12;17.23;;;10.80;;
25127;SDS011;13107;51.304;6.866;2023-04-06T10:26:25;16.83;;;11.88;;
25127;SDS011;13107;51.304;6.866;2023-04-06T10:30:27;17.12;;;10.90;;
25127;SDS011;13107;51.304;6.866;2023-04-06T10:34:36;18.73;;;12.05;;
25127;SDS011;13107;51.304;6.866;2023-04-06T10:38:38;15.93;;;10.60;;
25127;SDS011;13107;51.304;6.866;2023-04-06T10:42:42;16.33;;;11.05;;
25127;SDS011;13107;51.304;6.866;2023-04-06T10:46:51;16.12;;;10.80;;
25127;SDS011;13107;51.304;6.866;2023-04-06T10:50:57;18.52;;;11.27;;
25127;SDS011;13107;51.304;6.866;2023-04-06T10:54:59;17.50;;;11.60;;
25127;SDS011;13107;51.304;6.866;2023-04-06T10:59:02;18.33;;;12.25;;
25127;SDS011;13107;51.304;6.866;2023-04-06T11:03:04;20.42;;;12.13;;
25127;SDS011;13107;51.304;6.866;2023-04-06T11:07:06;19.90;;;12.00;;
25127;SDS011;13107;51.304;6.866;2023-04-06T11:11:12;19.92;;;11.68;;
25127;SDS011;13107;51.304;6.866;2023-04-06T11:15:17;20.42;;;11.93;;
25127;SDS011;13107;51.304;6.866;2023-04-06T11:19:18;20.12;;;12.48;;
25127;SDS011;13107;51.304;6.866;2023-04-06T11:23:23;18.60;;;12.25;;
25127;SDS011;13107;51.304;6.866;2023-04-06T11:27:28;20.62;;;12.25;;
25127;SDS011;13107;51.304;6.866;2023-04-06T11:31:42;23.92;;;12.00;;
25127;SDS011;13107;51.304;6.866;2023-04-06T11:35:48;18.00;;;12.27;;
25127;SDS011;13107;51.304;6.866;2023-04-06T11:39:50;19.83;;;12.20;;
25127;SDS011;13107;51.304;6.866;2023-04-06T11:43:55;19.37;;;11.90;;
25127;SDS011;13107;51.304;6.866;2023-04-06T11:47:58;20.23;;;12.77;;
25127;SDS011;13107;51.304;6.866;2023-04-06T11:52:01;19.00;;;12.57;;
25127;SDS011;13107;51.304;6.866;2023-04-06T11:56:03;19.05;;;12.52;;
25127;SDS011;13107;51.304;6.866;2023-04-06T12:00:06;20.98;;;12.95;;
25127;SDS011;13107;51.304;6.866;2023-04-06T12:04:09;19.65;;;12.63;;
25127;SDS011;13107;51.304;6.866;2023-04-06T12:08:11;21.17;;;13.65;;
25127;SDS011;13107;51.304;6.866;2023-04-06T12:12:13;18.52;;;11.38;;
25127;SDS011;13107;51.304;6.866;2023-04-06T12:16:14;19.10;;;12.57;;
25127;SDS011;13107;51.304;6.866;2023-04-06T12:20:16;16.02;;;11.88;;
25127;SDS011;13107;51.304;6.866;2023-04-06T12:24:27;19.73;;;12.55;;
25127;SDS011;13107;51.304;6.866;2023-04-06T12:28:29;18.92;;;11.98;;
25127;SDS011;13107;51.304;6.866;2023-04-06T12:32:32;21.45;;;12.13;;
25127;SDS011;13107;51.304;6.866;2023-04-06T12:36:34;21.37;;;11.85;;
25127;SDS011;13107;51.304;6.866;2023-04-06T12:40:36;17.42;;;10.70;;
25127;SDS011;13107;51.304;6.866;2023-04-06T12:44:41;17.15;;;10.18;;
25127;SDS011;13107;51.304;6.866;2023-04-06T12:48:43;20.27;;;10.13;;
25127;SDS011;13107;51.304;6.866;2023-04-06T12:52:46;13.75;;;9.25;;
25127;SDS011;13107;51.304;6.866;2023-04-06T12:56:48;16.60;;;10.27;;
25127;SDS011;13107;51.304;6.866;2023-04-06T13:00:50;16.58;;;10.65;;
25127;SDS011;13107;51.304;6.866;2023-04-06T13:04:52;15.57;;;10.05;;
25127;SDS011;13107;51.304;6.866;2023-04-06T13:08:54;14.68;;;9.07;;
25127;SDS011;13107;51.304;6.866;2023-04-06T13:12:56;16.33;;;10.70;;
25127;SDS011;13107;51.304;6.866;2023-04-06T13:16:58;15.48;;;9.95;;
25127;SDS011;13107;51.304;6.866;2023-04-06T13:21:02;14.63;;;8.95;;
25127;SDS011;13107;51.304;6.866;2023-04-06T13:25:04;12.68;;;8.18;;
25127;SDS011;13107;51.304;6.866;2023-04-06T13:29:06;14.13;;;8.48;;
25127;SDS011;13107;51.304;6.866;2023-04-06T13:33:08;12.02;;;8.20;;
25127;SDS011;13107;51.304;6.866;2023-04-06T13:37:11;13.32;;;8.20;;
25127;SDS011;13107;51.304;6.866;2023-04-06T13:41:21;11.40;;;8.50;;
25127;SDS011;13107;51.304;6.866;2023-04-06T13:45:23;12.13;;;7.43;;
25127;SDS011;13107;51.304;6.866;2023-04-06T13:49:25;12.07;;;7.97;;
25127;SDS011;13107;51.304;6.866;2023-04-06T13:53:27;10.98;;;7.97;;
25127;SDS011;13107;51.304;6.866;2023-04-06T13:57:29;10.18;;;7.43;;
25127;SDS011;13107;51.304;6.866;2023-04-06T14:01:31;11.85;;;7.05;;
25127;SDS011;13107;51.304;6.866;2023-04-06T14:05:33;9.68;;;7.15;;
25127;SDS011;13107;51.304;6.866;2023-04-06T14:09:35;13.05;;;7.30;;
25127;SDS011;13107;51.304;6.866;2023-04-06T14:13:37;10.02;;;7.00;;
25127;SDS011;13107;51.304;6.866;2023-04-06T14:17:39;8.32;;;6.45;;
25127;SDS011;13107;51.304;6.866;2023-04-06T14:21:41;13.18;;;6.87;;
25127;SDS011;13107;51.304;6.866;2023-04-06T14:25:44;11.00;;;7.25;;
25127;SDS011;13107;51.304;6.866;2023-04-06T14:29:47;10.70;;;6.65;;
25127;SDS011;13107;51.304;6.866;2023-04-06T14:33:48;9.90;;;7.00;;
25127;SDS011;13107;51.304;6.866;2023-04-06T14:37:50;8.75;;;6.15;;
25127;SDS011;13107;51.304;6.866;2023-04-06T14:41:52;10.90;;;6.50;;
25127;SDS011;13107;51.304;6.866;2023-04-06T14:45:54;8.40;;;5.57;;
25127;SDS011;13107;51.304;6.866;2023-04-06T14:49:56;8.80;;;6.35;;
25127;SDS011;13107;51.304;6.866;2023-04-06T14:53:59;9.88;;;7.03;;
25127;SDS011;13107;51.304;6.866;2023-04-06T14:58:02;10.80;;;6.65;;
25127;SDS011;13107;51.304;6.866;2023-04-06T15:02:03;13.70;;;7.80;;
25127;SDS011;13107;51.304;6.866;2023-04-06T15:06:05;10.82;;;6.97;;
25127;SDS011;13107;51.304;6.866;2023-04-06T15:10:14;12.07;;;7.12;;
25127;SDS011;13107;51.304;6.866;2023-04-06T15:14:16;13.20;;;8.02;;
25127;SDS011;13107;51.304;6.866;2023-04-06T15:18:18;12.68;;;7.57;;
25127;SDS011;13107;51.304;6.866;2023-04-06T15:22:19;14.40;;;7.28;;
25127;SDS011;13107;51.304;6.866;2023-04-06T15:26:21;11.93;;;7.57;;
25127;SDS011;13107;51.304;6.866;2023-04-06T15:30:23;12.37;;;6.15;;
25127;SDS011;13107;51.304;6.866;2023-04-06T15:34:25;9.02;;;5.85;;
25127;SDS011;13107;51.304;6.866;2023-04-06T15:38:31;7.72;;;5.60;;
25127;SDS011;13107;51.304;6.866;2023-04-06T15:42:33;7.40;;;5.12;;
25127;SDS011;13107;51.304;6.866;2023-04-06T15:46:35;8.25;;;5.32;;
25127;SDS011;13107;51.304;6.866;2023-04-06T15:50:37;8.20;;;5.57;;
25127;SDS011;13107;51.304;6.866;2023-04-06T15:54:39;10.13;;;6.12;;
25127;SDS011;13107;51.304;6.866;2023-04-06T15:58:41;8.63;;;5.97;;
25127;SDS011;13107;51.304;6.866;2023-04-06T16:02:43;9.00;;;5.65;;
25127;SDS011;13107;51.304;6.866;2023-04-06T16:06:45;10.20;;;5.95;;
25127;SDS011;13107;51.304;6.866;2023-04-06T16:10:46;7.93;;;5.37;;
25127;SDS011;13107;51.304;6.866;2023-04-06T16:14:49;10.40;;;6.72;;
25127;SDS011;13107;51.304;6.866;2023-04-06T16:18:51;11.07;;;6.70;;
25127;SDS011;13107;51.304;6.866;2023-04-06T16:22:53;8.57;;;6.18;;
25127;SDS011;13107;51.304;6.866;2023-04-06T16:26:55;12.65;;;7.22;;
25127;SDS011;13107;51.304;6.866;2023-04-06T16:30:57;11.85;;;7.40;;
25127;SDS011;13107;51.304;6.866;2023-04-06T16:34:59;11.77;;;7.22;;
25127;SDS011;13107;51.304;6.866;2023-04-06T16:39:01;11.27;;;7.75;;
25127;SDS011;13107;51.304;6.866;2023-04-06T16:43:03;12.25;;;7.80;;
25127;SDS011;13107;51.304;6.866;2023-04-06T16:47:05;13.43;;;8.63;;
25127;SDS011;13107;51.304;6.866;2023-04-06T16:51:07;10.93;;;7.30;;
25127;SDS011;13107;51.304;6.866;2023-04-06T16:55:10;13.65;;;8.27;;
25127;SDS011;13107;51.304;6.866;2023-04-06T16:59:12;13.13;;;9.00;;
25127;SDS011;13107;51.304;6.866;2023-04-06T17:03:13;10.45;;;7.57;;
25127;SDS011;13107;51.304;6.866;2023-04-06T17:07:16;9.57;;;7.47;;
25127;SDS011;13107;51.304;6.866;2023-04-06T17:11:17;10.40;;;7.72;;
25127;SDS011;13107;51.304;6.866;2023-04-06T17:15:28;10.57;;;8.05;;
25127;SDS011;13107;51.304;6.866;2023-04-06T17:19:31;9.77;;;7.62;;
25127;SDS011;13107;51.304;6.866;2023-04-06T17:23:33;14.05;;;9.15;;
25127;SDS011;13107;51.304;6.866;2023-04-06T17:27:36;11.38;;;8.55;;
25127;SDS011;13107;51.304;6.866;2023-04-06T17:31:38;12.20;;;9.45;;
25127;SDS011;13107;51.304;6.866;2023-04-06T17:35:40;14.98;;;9.93;;
25127;SDS011;13107;51.304;6.866;2023-04-06T17:39:42;15.63;;;9.82;;
25127;SDS011;13107;51.304;6.866;2023-04-06T17:43:44;16.90;;;9.57;;
25127;SDS011;13107;51.304;6.866;2023-04-06T17:47:46;16.23;;;10.82;;
25127;SDS011;13107;51.304;6.866;2023-04-06T17:51:48;12.30;;;9.85;;
25127;SDS011;13107;51.304;6.866;2023-04-06T17:55:50;16.45;;;10.32;;
25127;SDS011;13107;51.304;6.866;2023-04-06T17:59:52;20.25;;;11.77;;
25127;SDS011;13107;51.304;6.866;2023-04-06T18:03:54;16.42;;;10.32;;
25127;SDS011;13107;51.304;6.866;2023-04-06T18:07:56;19.40;;;11.25;;
25127;SDS011;13107;51.304;6.866;2023-04-06T18:11:58;14.45;;;10.95;;
25127;SDS011;13107;51.304;6.866;2023-04-06T18:16:00;17.75;;;11.63;;
25127;SDS011;13107;51.304;6.866;2023-04-06T18:20:02;16.65;;;10.48;;
25127;SDS011;13107;51.304;6.866;2023-04-06T18:24:04;15.88;;;10.90;;
25127;SDS011;13107;51.304;6.866;2023-04-06T18:28:07;15.63;;;11.25;;
25127;SDS011;13107;51.304;6.866;2023-04-06T18:32:09;13.43;;;10.48;;
25127;SDS011;13107;51.304;6.866;2023-04-06T18:36:11;16.25;;;10.90;;
25127;SDS011;13107;51.304;6.866;2023-04-06T18:44:35;14.20;;;11.20;;
25127;SDS011;13107;51.304;6.866;2023-04-06T18:48:37;17.17;;;10.88;;
25127;SDS011;13107;51.304;6.866;2023-04-06T18:52:39;16.45;;;11.68;;
25127;SDS011;13107;51.304;6.866;2023-04-06T18:56:41;15.77;;;10.98;;
25127;SDS011;13107;51.304;6.866;2023-04-06T19:00:43;15.50;;;12.07;;
25127;SDS011;13107;51.304;6.866;2023-04-06T19:04:45;17.85;;;12.75;;
25127;SDS011;13107;51.304;6.866;2023-04-06T19:08:47;16.98;;;12.57;;
25127;SDS011;13107;51.304;6.866;2023-04-06T19:12:49;16.45;;;12.05;;
25127;SDS011;13107;51.304;6.866;2023-04-06T19:16:51;18.12;;;12.90;;
25127;SDS011;13107;51.304;6.866;2023-04-06T19:20:53;16.65;;;12.13;;
25127;SDS011;13107;51.304;6.866;2023-04-06T19:24:55;16.05;;;12.25;;
25127;SDS011;13107;51.304;6.866;2023-04-06T19:28:57;17.58;;;12.85;;
25127;SDS011;13107;51.304;6.866;2023-04-06T19:32:59;18.70;;;13.32;;
25127;SDS011;13107;51.304;6.866;2023-04-06T19:37:01;17.55;;;13.07;;
25127;SDS011;13107;51.304;6.866;2023-04-06T19:41:02;16.23;;;12.00;;
25127;SDS011;13107;51.304;6.866;2023-04-06T19:45:05;16.00;;;11.35;;
25127;SDS011;13107;51.304;6.866;2023-04-06T19:49:07;14.90;;;11.23;;
25127;SDS011;13107;51.304;6.866;2023-04-06T19:53:09;14.77;;;11.63;;
25127;SDS011;13107;51.304;6.866;2023-04-06T19:57:11;15.10;;;11.68;;
25127;SDS011;13107;51.304;6.866;2023-04-06T20:01:13;15.35;;;11.75;;
25127;SDS011;13107;51.304;6.866;2023-04-06T20:05:15;13.95;;;11.43;;
25127;SDS011;13107;51.304;6.866;2023-04-06T20:09:17;15.32;;;12.15;;
25127;SDS011;13107;51.304;6.866;2023-04-06T20:13:19;17.48;;;12.13;;
25127;SDS011;13107;51.304;6.866;2023-04-06T20:17:21;14.45;;;11.40;;
25127;SDS011;13107;51.304;6.866;2023-04-06T20:21:24;15.30;;;11.90;;
25127;SDS011;13107;51.304;6.866;2023-04-06T20:25:26;15.77;;;11.05;;
25127;SDS011;13107;51.304;6.866;2023-04-06T20:29:28;14.30;;;11.18;;
25127;SDS011;13107;51.304;6.866;2023-04-06T20:33:29;16.55;;;11.38;;
25127;SDS011;13107;51.304;6.866;2023-04-06T20:37:32;14.38;;;11.20;;
25127;SDS011;13107;51.304;6.866;2023-04-06T20:41:35;14.50;;;10.88;;
25127;SDS011;13107;51.304;6.866;2023-04-06T20:45:36;16.98;;;11.50;;
25127;SDS011;13107;51.304;6.866;2023-04-06T20:49:38;14.55;;;10.52;;
25127;SDS011;13107;51.304;6.866;2023-04-06T20:53:40;14.45;;;10.45;;
25127;SDS011;13107;51.304;6.866;2023-04-06T20:57:42;15.63;;;11.93;;
25127;SDS011;13107;51.304;6.866;2023-04-06T21:01:46;16.95;;;11.63;;
25127;SDS011;13107;51.304;6.866;2023-04-06T21:05:51;15.27;;;11.63;;
25127;SDS011;13107;51.304;6.866;2023-04-06T21:09:55;14.77;;;11.32;;
25127;SDS011;13107;51.304;6.866;2023-04-06T21:13:57;18.08;;;11.93;;
25127;SDS011;13107;51.304;6.866;2023-04-06T21:17:59;15.32;;;11.40;;
25127;SDS011;13107;51.304;6.866;2023-04-06T21:22:00;15.70;;;11.77;;
25127;SDS011;13107;51.304;6.866;2023-04-06T21:26:02;16.87;;;12.18;;
25127;SDS011;13107;51.304;6.866;2023-04-06T21:30:04;14.65;;;11.63;;
25127;SDS011;13107;51.304;6.866;2023-04-06T21:34:07;14.35;;;10.55;;
25127;SDS011;13107;51.304;6.866;2023-04-06T21:38:10;14.95;;;11.18;;
25127;SDS011;13107;51.304;6.866;2023-04-06T21:42:12;15.85;;;11.50;;
25127;SDS011;13107;51.304;6.866;2023-04-06T21:46:13;16.27;;;11.70;;
25127;SDS011;13107;51.304;6.866;2023-04-06T21:50:15;13.75;;;11.32;;
25127;SDS011;13107;51.304;6.866;2023-04-06T21:54:18;15.30;;;11.10;;
25127;SDS011;13107;51.304;6.866;2023-04-06T21:58:20;12.55;;;10.45;;
25127;SDS011;13107;51.304;6.866;2023-04-06T22:02:22;14.52;;;11.32;;
25127;SDS011;13107;51.304;6.866;2023-04-06T22:06:24;16.60;;;11.63;;
25127;SDS011;13107;51.304;6.866;2023-04-06T22:10:26;14.40;;;11.00;;
25127;SDS011;13107;51.304;6.866;2023-04-06T22:14:29;15.80;;;12.43;;
25127;SDS011;13107;51.304;6.866;2023-04-06T22:18:31;16.02;;;12.00;;
25127;SDS011;13107;51.304;6.866;2023-04-06T22:22:33;14.68;;;11.55;;
25127;SDS011;13107;51.304;6.866;2023-04-06T22:26:35;15.85;;;11.80;;
25127;SDS011;13107;51.304;6.866;2023-04-06T22:30:37;16.40;;;11.32;;
25127;SDS011;13107;51.304;6.866;2023-04-06T22:34:39;16.05;;;12.25;;
25127;SDS011;13107;51.304;6.866;2023-04-06T22:38:40;14.95;;;12.07;;
25127;SDS011;13107;51.304;6.866;2023-04-06T22:42:44;15.93;;;12.37;;
25127;SDS011;13107;51.304;6.866;2023-04-06T22:46:46;18.02;;;12.90;;
25127;SDS011;13107;51.304;6.866;2023-04-06T22:50:47;15.80;;;12.93;;
25127;SDS011;13107;51.304;6.866;2023-04-06T22:54:49;17.35;;;14.35;;
25127;SDS011;13107;51.304;6.866;2023-04-06T22:58:51;18.08;;;16.15;;
25127;SDS011;13107;51.304;6.866;2023-04-06T23:02:53;20.80;;;16.08;;
25127;SDS011;13107;51.304;6.866;2023-04-06T23:06:55;19.35;;;14.98;;
25127;SDS011;13107;51.304;6.866;2023-04-06T23:10:56;21.40;;;17.05;;
25127;SDS011;13107;51.304;6.866;2023-04-06T23:14:58;21.00;;;16.65;;
25127;SDS011;13107;51.304;6.866;2023-04-06T23:19:00;19.12;;;16.40;;
25127;SDS011;13107;51.304;6.866;2023-04-06T23:23:01;21.05;;;17.02;;
25127;SDS011;13107;51.304;6.866;2023-04-06T23:27:03;23.20;;;18.60;;
25127;SDS011;13107;51.304;6.866;2023-04-06T23:31:05;21.20;;;18.12;;
25127;SDS011;13107;51.304;6.866;2023-04-06T23:35:07;26.02;;;18.00;;
25127;SDS011;13107;51.304;6.866;2023-04-06T23:39:09;22.00;;;18.00;;
25127;SDS011;13107;51.304;6.866;2023-04-06T23:43:10;23.52;;;18.05;;
25127;SDS011;13107;51.304;6.866;2023-04-06T23:47:12;24.17;;;18.45;;
25127;SDS011;13107;51.304;6.866;2023-04-06T23:51:14;25.55;;;19.30;;
25127;SDS011;13107;51.304;6.866;2023-04-06T23:55:16;24.00;;;18.65;;
25127;SDS011;13107;51.304;6.866;2023-04-06T23:59:18;21.65;;;18.30;;
